sensor_id;sensor_type;location;lat;lon;timestamp;temperature;humidity
3504;DHT22;1766;53.490;10.174;2024-03-23T00:54:20;14.20;50.00
3504;DHT22;1766;53.490;10.174;2024-03-23T00:56:21;14.10;49.80
3504;DHT22;1766;53.490;10.174;2024-03-23T00:58:22;14.10;49.90
3504;DHT22;1766;53.490;10.174;2024-03-23T01:00:23;14.10;49.90
3504;DHT22;1766;53.490;10.174;2024-03-23T01:02:24;14.00;49.90
3504;DHT22;1766;53.490;10.174;2024-03-23T01:04:26;14.00;50.00
3504;DHT22;1766;53.490;10.174;2024-03-23T01:06:27;14.00;50.00
3504;DHT22;1766;53.490;10.174;2024-03-23T01:08:30;14.00;50.00
3504;DHT22;1766;53.490;10.174;2024-03-23T01:10:31;14.00;50.10
3504;DHT22;1766;53.490;10.174;2024-03-23T01:12:33;14.00;50.10
3504;DHT22;1766;53.490;10.174;2024-03-23T01:14:34;14.00;50.10
3504;DHT22;1766;53.490;10.174;2024-03-23T01:16:36;14.00;50.10
3504;DHT22;1766;53.490;10.174;2024-03-23T01:18:37;14.00;50.00
3504;DHT22;1766;53.490;10.174;2024-03-23T01:20:39;14.00;50.10
3504;DHT22;1766;53.490;10.174;2024-03-23T01:22:40;14.00;50.00
3504;DHT22;1766;53.490;10.174;2024-03-23T01:24:43;14.00;50.10
3504;DHT22;1766;53.490;10.174;2024-03-23T01:26:44;14.00;50.00
3504;DHT22;1766;53.490;10.174;2024-03-23T01:28:46;14.00;50.10
3504;DHT22;1766;53.490;10.174;2024-03-23T01:30:47;13.90;50.00
3504;DHT22;1766;53.490;10.174;2024-03-23T01:32:49;13.90;50.10
3504;DHT22;1766;53.490;10.174;2024-03-23T01:34:50;13.90;50.10
3504;DHT22;1766;53.490;10.174;2024-03-23T01:36:52;13.90;50.20
3504;DHT22;1766;53.490;10.174;2024-03-23T01:38:53;13.90;50.20
3504;DHT22;1766;53.490;10.174;2024-03-23T01:40:58;13.90;50.20
3504;DHT22;1766;53.490;10.174;2024-03-23T01:43:03;13.90;50.30
3504;DHT22;1766;53.490;10.174;2024-03-23T01:45:08;13.80;50.20
3504;DHT22;1766;53.490;10.174;2024-03-23T01:47:10;13.90;50.40
3504;DHT22;1766;53.490;10.174;2024-03-23T01:49:12;13.80;50.20
3504;DHT22;1766;53.490;10.174;2024-03-23T01:51:14;13.80;50.20
3504;DHT22;1766;53.490;10.174;2024-03-23T01:53:16;13.80;50.30
3504;DHT22;1766;53.490;10.174;2024-03-23T01:55:18;13.80;50.30
3504;DHT22;1766;53.490;10.174;2024-03-23T01:57:21;13.70;50.20
3504;DHT22;1766;53.490;10.174;2024-03-23T01:59:23;13.70;50.20
3504;DHT22;1766;53.490;10.174;2024-03-23T02:01:25;13.20;49.80
3504;DHT22;1766;53.490;10.174;2024-03-23T02:03:27;13.70;50.20
3504;DHT22;1766;53.490;10.174;2024-03-23T02:05:29;13.70;50.40
3504;DHT22;1766;53.490;10.174;2024-03-23T02:07:31;13.70;50.30
3504;DHT22;1766;53.490;10.174;2024-03-23T02:09:33;13.70;50.30
3504;DHT22;1766;53.490;10.174;2024-03-23T02:11:34;13.70;50.30
3504;DHT22;1766;53.490;10.174;2024-03-23T02:13:37;13.70;50.30
3504;DHT22;1766;53.490;10.174;2024-03-23T02:15:39;13.70;50.40
3504;DHT22;1766;53.490;10.174;2024-03-23T02:17:41;13.60;50.30
3504;DHT22;1766;53.490;10.174;2024-03-23T02:19:42;13.60;50.40
3504;DHT22;1766;53.490;10.174;2024-03-23T02:21:44;13.60;50.40
3504;DHT22;1766;53.490;10.174;2024-03-23T02:23:48;13.60;50.40
3504;DHT22;1766;53.490;10.174;2024-03-23T02:25:50;13.60;50.50
3504;DHT22;1766;53.490;10.174;2024-03-23T02:27:51;13.60;50.50
3504;DHT22;1766;53.490;10.174;2024-03-23T02:29:54;13.60;50.50
3504;DHT22;1766;53.490;10.174;2024-03-23T02:31:55;13.60;50.40
3504;DHT22;1766;53.490;10.174;2024-03-23T02:33:59;13.60;50.50
3504;DHT22;1766;53.490;10.174;2024-03-23T02:36:00;13.60;50.50
3504;DHT22;1766;53.490;10.174;2024-03-23T02:38:02;13.60;50.50
3504;DHT22;1766;53.490;10.174;2024-03-23T02:40:04;13.70;50.50
3504;DHT22;1766;53.490;10.174;2024-03-23T02:42:07;13.50;50.40
3504;DHT22;1766;53.490;10.174;2024-03-23T02:44:08;13.70;50.50
3504;DHT22;1766;53.490;10.174;2024-03-23T02:46:12;13.50;50.30
3504;DHT22;1766;53.490;10.174;2024-03-23T02:48:13;13.60;50.50
3504;DHT22;1766;53.490;10.174;2024-03-23T02:50:15;13.50;50.40
3504;DHT22;1766;53.490;10.174;2024-03-23T02:52:16;13.50;50.50
3504;DHT22;1766;53.490;10.174;2024-03-23T02:54:18;13.50;50.50
3504;DHT22;1766;53.490;10.174;2024-03-23T02:56:20;13.50;50.50
3504;DHT22;1766;53.490;10.174;2024-03-23T02:58:22;13.50;50.60
3504;DHT22;1766;53.490;10.174;2024-03-23T03:00:23;13.50;50.60
3504;DHT22;1766;53.490;10.174;2024-03-23T03:02:24;13.50;50.60
3504;DHT22;1766;53.490;10.174;2024-03-23T03:04:25;13.50;50.60
3504;DHT22;1766;53.490;10.174;2024-03-23T03:06:27;13.50;50.60
3504;DHT22;1766;53.490;10.174;2024-03-23T03:08:30;13.50;50.60
3504;DHT22;1766;53.490;10.174;2024-03-23T03:10:32;13.50;50.50
3504;DHT22;1766;53.490;10.174;2024-03-23T03:12:38;13.40;50.50
3504;DHT22;1766;53.490;10.174;2024-03-23T03:14:40;13.40;50.50
3504;DHT22;1766;53.490;10.174;2024-03-23T03:16:41;13.40;50.60
3504;DHT22;1766;53.490;10.174;2024-03-23T03:18:42;13.40;50.60
3504;DHT22;1766;53.490;10.174;2024-03-23T03:20:46;13.40;50.70
3504;DHT22;1766;53.490;10.174;2024-03-23T03:22:47;13.40;50.70
3504;DHT22;1766;53.490;10.174;2024-03-23T03:24:49;13.40;50.70
3504;DHT22;1766;53.490;10.174;2024-03-23T03:26:50;13.40;50.60
3504;DHT22;1766;53.490;10.174;2024-03-23T03:28:54;13.40;50.70
3504;DHT22;1766;53.490;10.174;2024-03-23T03:30:55;13.40;50.70
3504;DHT22;1766;53.490;10.174;2024-03-23T03:32:57;13.30;50.60
3504;DHT22;1766;53.490;10.174;2024-03-23T03:34:58;13.30;50.60
3504;DHT22;1766;53.490;10.174;2024-03-23T03:37:00;13.30;50.80
3504;DHT22;1766;53.490;10.174;2024-03-23T03:39:00;13.20;50.70
3504;DHT22;1766;53.490;10.174;2024-03-23T03:41:03;13.20;50.70
3504;DHT22;1766;53.490;10.174;2024-03-23T03:43:04;13.20;50.80
3504;DHT22;1766;53.490;10.174;2024-03-23T03:45:08;13.20;50.80
3504;DHT22;1766;53.490;10.174;2024-03-23T03:47:09;13.10;50.80
3504;DHT22;1766;53.490;10.174;2024-03-23T03:49:11;13.20;50.90
3504;DHT22;1766;53.490;10.174;2024-03-23T03:51:12;13.20;50.90
3504;DHT22;1766;53.490;10.174;2024-03-23T03:53:13;13.20;51.00
3504;DHT22;1766;53.490;10.174;2024-03-23T03:55:15;13.10;50.80
3504;DHT22;1766;53.490;10.174;2024-03-23T03:57:17;13.10;51.00
3504;DHT22;1766;53.490;10.174;2024-03-23T03:59:19;13.10;50.90
3504;DHT22;1766;53.490;10.174;2024-03-23T04:01:23;13.10;50.90
3504;DHT22;1766;53.490;10.174;2024-03-23T04:03:24;13.10;50.90
3504;DHT22;1766;53.490;10.174;2024-03-23T04:05:26;13.10;51.00
3504;DHT22;1766;53.490;10.174;2024-03-23T04:07:27;13.10;51.00
3504;DHT22;1766;53.490;10.174;2024-03-23T04:09:28;13.10;51.00
3504;DHT22;1766;53.490;10.174;2024-03-23T04:11:30;13.10;51.10
3504;DHT22;1766;53.490;10.174;2024-03-23T04:13:31;13.10;51.10
3504;DHT22;1766;53.490;10.174;2024-03-23T04:15:34;13.10;51.10
3504;DHT22;1766;53.490;10.174;2024-03-23T04:17:36;13.10;51.10
3504;DHT22;1766;53.490;10.174;2024-03-23T04:19:38;13.10;51.20
3504;DHT22;1766;53.490;10.174;2024-03-23T04:21:41;13.10;51.20
3504;DHT22;1766;53.490;10.174;2024-03-23T04:23:43;13.10;51.20
3504;DHT22;1766;53.490;10.174;2024-03-23T04:25:44;13.00;51.00
3504;DHT22;1766;53.490;10.174;2024-03-23T04:27:46;13.00;51.00
3504;DHT22;1766;53.490;10.174;2024-03-23T04:29:47;13.00;51.10
3504;DHT22;1766;53.490;10.174;2024-03-23T04:31:50;13.00;51.20
3504;DHT22;1766;53.490;10.174;2024-03-23T04:33:52;13.00;51.30
3504;DHT22;1766;53.490;10.174;2024-03-23T04:35:54;13.10;51.30
3504;DHT22;1766;53.490;10.174;2024-03-23T04:37:55;13.00;51.10
3504;DHT22;1766;53.490;10.174;2024-03-23T04:39:59;13.00;51.10
3504;DHT22;1766;53.490;10.174;2024-03-23T04:42:01;13.00;51.10
3504;DHT22;1766;53.490;10.174;2024-03-23T04:44:03;14.20;52.10
3504;DHT22;1766;53.490;10.174;2024-03-23T04:46:04;12.90;51.10
3504;DHT22;1766;53.490;10.174;2024-03-23T04:48:07;12.90;51.20
3504;DHT22;1766;53.490;10.174;2024-03-23T04:50:09;12.90;51.30
3504;DHT22;1766;53.490;10.174;2024-03-23T04:52:12;12.80;51.20
3504;DHT22;1766;53.490;10.174;2024-03-23T04:54:13;12.80;51.30
3504;DHT22;1766;53.490;10.174;2024-03-23T04:56:15;12.80;51.80
3504;DHT22;1766;53.490;10.174;2024-03-23T04:58:16;12.80;51.20
3504;DHT22;1766;53.490;10.174;2024-03-23T05:00:18;12.80;51.30
3504;DHT22;1766;53.490;10.174;2024-03-23T05:02:19;12.70;51.30
3504;DHT22;1766;53.490;10.174;2024-03-23T05:04:21;12.80;51.30
3504;DHT22;1766;53.490;10.174;2024-03-23T05:06:23;12.80;51.30
3504;DHT22;1766;53.490;10.174;2024-03-23T05:08:25;12.80;51.30
3504;DHT22;1766;53.490;10.174;2024-03-23T05:10:26;12.80;51.30
3504;DHT22;1766;53.490;10.174;2024-03-23T05:12:29;12.80;51.30
3504;DHT22;1766;53.490;10.174;2024-03-23T05:14:29;12.80;51.40
3504;DHT22;1766;53.490;10.174;2024-03-23T05:16:31;12.80;51.30
3504;DHT22;1766;53.490;10.174;2024-03-23T05:18:32;12.80;51.30
3504;DHT22;1766;53.490;10.174;2024-03-23T05:20:34;12.80;51.30
3504;DHT22;1766;53.490;10.174;2024-03-23T05:22:36;12.80;51.30
3504;DHT22;1766;53.490;10.174;2024-03-23T05:24:38;12.80;51.30
3504;DHT22;1766;53.490;10.174;2024-03-23T05:26:39;12.80;51.30
3504;DHT22;1766;53.490;10.174;2024-03-23T05:28:41;12.80;51.30
3504;DHT22;1766;53.490;10.174;2024-03-23T05:30:42;12.80;51.30
3504;DHT22;1766;53.490;10.174;2024-03-23T05:32:43;12.80;51.40
3504;DHT22;1766;53.490;10.174;2024-03-23T05:34:45;12.80;51.30
3504;DHT22;1766;53.490;10.174;2024-03-23T05:36:46;12.80;51.30
3504;DHT22;1766;53.490;10.174;2024-03-23T05:38:51;12.80;51.40
3504;DHT22;1766;53.490;10.174;2024-03-23T05:40:54;12.80;51.40
3504;DHT22;1766;53.490;10.174;2024-03-23T05:42:55;12.80;51.30
3504;DHT22;1766;53.490;10.174;2024-03-23T05:44:56;12.80;51.30
3504;DHT22;1766;53.490;10.174;2024-03-23T05:46:58;12.80;51.40
3504;DHT22;1766;53.490;10.174;2024-03-23T05:49:02;12.80;51.40
3504;DHT22;1766;53.490;10.174;2024-03-23T05:51:04;12.80;51.40
3504;DHT22;1766;53.490;10.174;2024-03-23T05:53:05;12.80;51.40
3504;DHT22;1766;53.490;10.174;2024-03-23T05:55:08;12.80;51.40
3504;DHT22;1766;53.490;10.174;2024-03-23T05:57:09;12.80;51.30
3504;DHT22;1766;53.490;10.174;2024-03-23T05:59:12;12.90;51.50
3504;DHT22;1766;53.490;10.174;2024-03-23T06:01:13;12.90;51.50
3504;DHT22;1766;53.490;10.174;2024-03-23T06:03:14;12.90;51.50
3504;DHT22;1766;53.490;10.174;2024-03-23T06:05:16;12.90;51.50
3504;DHT22;1766;53.490;10.174;2024-03-23T06:07:17;12.90;51.40
3504;DHT22;1766;53.490;10.174;2024-03-23T06:09:19;13.00;51.50
3504;DHT22;1766;53.490;10.174;2024-03-23T06:11:21;13.00;51.40
3504;DHT22;1766;53.490;10.174;2024-03-23T06:13:23;13.00;51.40
3504;DHT22;1766;53.490;10.174;2024-03-23T06:15:30;12.90;51.30
3504;DHT22;1766;53.490;10.174;2024-03-23T06:17:32;12.90;51.40
3504;DHT22;1766;53.490;10.174;2024-03-23T06:19:33;12.90;51.50
3504;DHT22;1766;53.490;10.174;2024-03-23T06:21:35;12.90;51.50
3504;DHT22;1766;53.490;10.174;2024-03-23T06:23:36;12.90;51.50
3504;DHT22;1766;53.490;10.174;2024-03-23T06:25:38;12.90;51.60
3504;DHT22;1766;53.490;10.174;2024-03-23T06:27:41;12.90;51.60
3504;DHT22;1766;53.490;10.174;2024-03-23T06:29:43;12.90;51.70
3504;DHT22;1766;53.490;10.174;2024-03-23T06:31:44;12.90;51.50
3504;DHT22;1766;53.490;10.174;2024-03-23T06:33:55;13.00;51.70
3504;DHT22;1766;53.490;10.174;2024-03-23T06:35:56;12.90;51.50
3504;DHT22;1766;53.490;10.174;2024-03-23T06:37:58;12.90;51.50
3504;DHT22;1766;53.490;10.174;2024-03-23T06:39:59;12.90;51.50
3504;DHT22;1766;53.490;10.174;2024-03-23T06:42:01;12.90;51.50
3504;DHT22;1766;53.490;10.174;2024-03-23T06:44:03;12.90;51.60
3504;DHT22;1766;53.490;10.174;2024-03-23T06:46:05;13.00;52.00
3504;DHT22;1766;53.490;10.174;2024-03-23T06:48:07;13.10;52.00
3504;DHT22;1766;53.490;10.174;2024-03-23T06:50:09;13.10;51.90
3504;DHT22;1766;53.490;10.174;2024-03-23T06:52:10;13.20;51.90
3504;DHT22;1766;53.490;10.174;2024-03-23T06:54:12;13.20;51.90
3504;DHT22;1766;53.490;10.174;2024-03-23T06:56:13;13.30;51.90
3504;DHT22;1766;53.490;10.174;2024-03-23T06:58:15;13.30;51.80
3504;DHT22;1766;53.490;10.174;2024-03-23T07:00:18;13.30;51.80
3504;DHT22;1766;53.490;10.174;2024-03-23T07:02:20;13.30;51.80
3504;DHT22;1766;53.490;10.174;2024-03-23T07:04:21;13.30;51.70
3504;DHT22;1766;53.490;10.174;2024-03-23T07:06:22;13.30;51.70
3504;DHT22;1766;53.490;10.174;2024-03-23T07:08:23;13.30;51.70
3504;DHT22;1766;53.490;10.174;2024-03-23T07:10:25;13.30;51.80
3504;DHT22;1766;53.490;10.174;2024-03-23T07:12:26;13.30;51.80
3504;DHT22;1766;53.490;10.174;2024-03-23T07:14:28;13.30;51.80
3504;DHT22;1766;53.490;10.174;2024-03-23T07:16:30;13.30;51.80
3504;DHT22;1766;53.490;10.174;2024-03-23T07:18:32;13.40;52.00
3504;DHT22;1766;53.490;10.174;2024-03-23T07:20:35;13.40;51.90
3504;DHT22;1766;53.490;10.174;2024-03-23T07:22:37;13.40;51.90
3504;DHT22;1766;53.490;10.174;2024-03-23T07:24:39;13.50;51.80
3504;DHT22;1766;53.490;10.174;2024-03-23T07:26:41;13.50;51.80
3504;DHT22;1766;53.490;10.174;2024-03-23T07:28:43;13.50;51.70
3504;DHT22;1766;53.490;10.174;2024-03-23T07:30:46;13.50;51.70
3504;DHT22;1766;53.490;10.174;2024-03-23T07:32:48;13.50;51.70
3504;DHT22;1766;53.490;10.174;2024-03-23T07:34:50;13.50;51.70
3504;DHT22;1766;53.490;10.174;2024-03-23T07:36:51;13.60;51.70
3504;DHT22;1766;53.490;10.174;2024-03-23T07:38:53;13.60;51.70
3504;DHT22;1766;53.490;10.174;2024-03-23T07:41:03;13.60;51.60
3504;DHT22;1766;53.490;10.174;2024-03-23T07:43:05;13.70;51.60
3504;DHT22;1766;53.490;10.174;2024-03-23T07:45:07;13.60;51.40
3504;DHT22;1766;53.490;10.174;2024-03-23T07:47:09;13.60;51.40
3504;DHT22;1766;53.490;10.174;2024-03-23T07:49:12;13.60;51.30
3504;DHT22;1766;53.490;10.174;2024-03-23T07:51:16;13.60;51.30
3504;DHT22;1766;53.490;10.174;2024-03-23T07:53:18;13.60;51.30
3504;DHT22;1766;53.490;10.174;2024-03-23T07:55:19;13.60;51.30
3504;DHT22;1766;53.490;10.174;2024-03-23T07:57:21;13.60;51.30
3504;DHT22;1766;53.490;10.174;2024-03-23T07:59:22;13.70;51.50
3504;DHT22;1766;53.490;10.174;2024-03-23T08:01:25;13.80;51.40
3504;DHT22;1766;53.490;10.174;2024-03-23T08:03:26;13.90;51.40
3504;DHT22;1766;53.490;10.174;2024-03-23T08:05:30;14.00;51.30
3504;DHT22;1766;53.490;10.174;2024-03-23T08:07:30;14.10;51.40
3504;DHT22;1766;53.490;10.174;2024-03-23T08:09:32;14.20;51.40
3504;DHT22;1766;53.490;10.174;2024-03-23T08:11:33;14.30;51.20
3504;DHT22;1766;53.490;10.174;2024-03-23T08:13:38;14.30;51.00
3504;DHT22;1766;53.490;10.174;2024-03-23T08:15:39;14.40;51.00
3504;DHT22;1766;53.490;10.174;2024-03-23T08:17:40;14.40;50.70
3504;DHT22;1766;53.490;10.174;2024-03-23T08:19:42;14.40;50.80
3504;DHT22;1766;53.490;10.174;2024-03-23T08:21:44;14.40;50.50
3504;DHT22;1766;53.490;10.174;2024-03-23T08:23:46;14.50;50.40
3504;DHT22;1766;53.490;10.174;2024-03-23T08:25:47;14.50;50.30
3504;DHT22;1766;53.490;10.174;2024-03-23T08:27:49;14.50;50.30
3504;DHT22;1766;53.490;10.174;2024-03-23T08:29:50;14.50;50.10
3504;DHT22;1766;53.490;10.174;2024-03-23T08:31:52;14.60;50.30
3504;DHT22;1766;53.490;10.174;2024-03-23T08:33:53;14.70;50.20
3504;DHT22;1766;53.490;10.174;2024-03-23T08:35:56;14.80;50.00
3504;DHT22;1766;53.490;10.174;2024-03-23T08:38:00;14.80;50.00
3504;DHT22;1766;53.490;10.174;2024-03-23T08:40:01;14.90;50.00
3504;DHT22;1766;53.490;10.174;2024-03-23T08:42:04;15.00;49.80
3504;DHT22;1766;53.490;10.174;2024-03-23T08:44:07;15.10;49.60
3504;DHT22;1766;53.490;10.174;2024-03-23T08:46:09;15.10;49.40
3504;DHT22;1766;53.490;10.174;2024-03-23T08:48:12;15.20;49.30
3504;DHT22;1766;53.490;10.174;2024-03-23T08:50:13;15.20;49.00
3504;DHT22;1766;53.490;10.174;2024-03-23T08:52:15;15.20;48.70
3504;DHT22;1766;53.490;10.174;2024-03-23T08:54:17;15.20;48.60
3504;DHT22;1766;53.490;10.174;2024-03-23T08:56:20;15.30;48.50
3504;DHT22;1766;53.490;10.174;2024-03-23T08:58:22;15.20;48.10
3504;DHT22;1766;53.490;10.174;2024-03-23T09:00:25;15.20;48.30
3504;DHT22;1766;53.490;10.174;2024-03-23T09:02:26;15.30;48.30
3504;DHT22;1766;53.490;10.174;2024-03-23T09:04:28;15.30;48.10
3504;DHT22;1766;53.490;10.174;2024-03-23T09:06:29;15.30;48.00
3504;DHT22;1766;53.490;10.174;2024-03-23T09:08:31;15.40;47.90
3504;DHT22;1766;53.490;10.174;2024-03-23T09:12:51;15.40;47.50
3504;DHT22;1766;53.490;10.174;2024-03-23T09:14:52;15.40;47.30
3504;DHT22;1766;53.490;10.174;2024-03-23T09:16:54;15.30;47.10
3504;DHT22;1766;53.490;10.174;2024-03-23T09:18:55;15.30;47.20
3504;DHT22;1766;53.490;10.174;2024-03-23T09:20:56;15.30;47.10
3504;DHT22;1766;53.490;10.174;2024-03-23T09:27:31;15.50;47.00
3504;DHT22;1766;53.490;10.174;2024-03-23T09:29:34;15.70;47.00
3504;DHT22;1766;53.490;10.174;2024-03-23T09:31:35;15.80;46.80
3504;DHT22;1766;53.490;10.174;2024-03-23T09:33:39;16.00;46.70
3504;DHT22;1766;53.490;10.174;2024-03-23T09:35:40;16.10;46.40
3504;DHT22;1766;53.490;10.174;2024-03-23T09:37:45;16.20;46.20
3504;DHT22;1766;53.490;10.174;2024-03-23T09:39:46;16.20;45.80
3504;DHT22;1766;53.490;10.174;2024-03-23T09:41:48;16.30;45.70
3504;DHT22;1766;53.490;10.174;2024-03-23T09:43:52;16.30;44.90
3504;DHT22;1766;53.490;10.174;2024-03-23T09:45:55;16.30;44.60
3504;DHT22;1766;53.490;10.174;2024-03-23T09:47:56;16.30;44.00
3504;DHT22;1766;53.490;10.174;2024-03-23T09:49:59;16.30;43.50
3504;DHT22;1766;53.490;10.174;2024-03-23T09:52:01;16.20;43.10
3504;DHT22;1766;53.490;10.174;2024-03-23T09:54:03;16.10;42.80
3504;DHT22;1766;53.490;10.174;2024-03-23T09:56:04;16.00;42.50
3504;DHT22;1766;53.490;10.174;2024-03-23T09:58:06;15.90;42.40
3504;DHT22;1766;53.490;10.174;2024-03-23T10:00:08;15.80;42.20
3504;DHT22;1766;53.490;10.174;2024-03-23T10:02:13;15.80;42.20
3504;DHT22;1766;53.490;10.174;2024-03-23T10:04:39;15.90;42.40
3504;DHT22;1766;53.490;10.174;2024-03-23T10:06:42;16.00;41.90
3504;DHT22;1766;53.490;10.174;2024-03-23T10:08:43;16.00;41.30
3504;DHT22;1766;53.490;10.174;2024-03-23T10:10:46;16.00;41.00
3504;DHT22;1766;53.490;10.174;2024-03-23T10:12:48;15.90;40.70
3504;DHT22;1766;53.490;10.174;2024-03-23T10:14:52;15.90;40.70
3504;DHT22;1766;53.490;10.174;2024-03-23T10:16:53;15.90;40.60
3504;DHT22;1766;53.490;10.174;2024-03-23T10:18:56;15.90;40.60
3504;DHT22;1766;53.490;10.174;2024-03-23T10:21:07;15.90;40.60
3504;DHT22;1766;53.490;10.174;2024-03-23T10:23:15;16.00;40.70
3504;DHT22;1766;53.490;10.174;2024-03-23T10:25:17;16.10;40.50
3504;DHT22;1766;53.490;10.174;2024-03-23T10:27:20;16.10;40.40
3504;DHT22;1766;53.490;10.174;2024-03-23T10:29:22;16.10;40.40
3504;DHT22;1766;53.490;10.174;2024-03-23T10:31:24;16.20;40.40
3504;DHT22;1766;53.490;10.174;2024-03-23T10:33:25;16.20;40.20
3504;DHT22;1766;53.490;10.174;2024-03-23T10:35:28;16.30;40.20
3504;DHT22;1766;53.490;10.174;2024-03-23T10:37:30;16.40;40.20
3504;DHT22;1766;53.490;10.174;2024-03-23T10:39:33;16.60;40.30
3504;DHT22;1766;53.490;10.174;2024-03-23T10:41:36;16.80;40.00
3504;DHT22;1766;53.490;10.174;2024-03-23T10:43:38;16.90;39.80
3504;DHT22;1766;53.490;10.174;2024-03-23T10:45:40;16.90;39.30
3504;DHT22;1766;53.490;10.174;2024-03-23T10:47:41;17.00;39.00
3504;DHT22;1766;53.490;10.174;2024-03-23T10:49:43;17.00;38.80
3504;DHT22;1766;53.490;10.174;2024-03-23T10:51:46;17.10;38.90
3504;DHT22;1766;53.490;10.174;2024-03-23T10:53:47;17.10;38.60
3504;DHT22;1766;53.490;10.174;2024-03-23T10:55:49;17.10;37.90
3504;DHT22;1766;53.490;10.174;2024-03-23T10:57:54;17.10;37.50
3504;DHT22;1766;53.490;10.174;2024-03-23T10:59:55;16.90;37.30
3504;DHT22;1766;53.490;10.174;2024-03-23T11:01:59;16.80;37.30
3504;DHT22;1766;53.490;10.174;2024-03-23T11:04:01;16.70;37.40
3504;DHT22;1766;53.490;10.174;2024-03-23T11:06:04;16.60;37.60
3504;DHT22;1766;53.490;10.174;2024-03-23T11:08:07;16.50;38.10
3504;DHT22;1766;53.490;10.174;2024-03-23T11:10:25;16.20;38.30
3504;DHT22;1766;53.490;10.174;2024-03-23T11:12:29;15.90;38.90
3504;DHT22;1766;53.490;10.174;2024-03-23T11:14:33;15.70;39.40
3504;DHT22;1766;53.490;10.174;2024-03-23T11:16:34;15.60;39.90
3504;DHT22;1766;53.490;10.174;2024-03-23T11:18:36;15.50;40.10
3504;DHT22;1766;53.490;10.174;2024-03-23T11:20:38;15.40;40.30
3504;DHT22;1766;53.490;10.174;2024-03-23T11:22:43;15.30;40.70
3504;DHT22;1766;53.490;10.174;2024-03-23T11:24:51;15.10;40.80
3504;DHT22;1766;53.490;10.174;2024-03-23T11:26:52;15.00;41.10
3504;DHT22;1766;53.490;10.174;2024-03-23T11:29:09;15.00;41.70
3504;DHT22;1766;53.490;10.174;2024-03-23T11:31:10;15.20;42.40
3504;DHT22;1766;53.490;10.174;2024-03-23T11:33:12;15.40;42.60
3504;DHT22;1766;53.490;10.174;2024-03-23T11:35:28;15.60;42.90
3504;DHT22;1766;53.490;10.174;2024-03-23T11:37:31;16.00;43.10
3504;DHT22;1766;53.490;10.174;2024-03-23T11:39:32;16.30;43.00
3504;DHT22;1766;53.490;10.174;2024-03-23T11:41:35;16.50;42.70
3504;DHT22;1766;53.490;10.174;2024-03-23T11:43:36;16.70;42.70
3504;DHT22;1766;53.490;10.174;2024-03-23T11:45:42;16.90;42.30
3504;DHT22;1766;53.490;10.174;2024-03-23T11:47:43;17.00;42.00
3504;DHT22;1766;53.490;10.174;2024-03-23T11:49:45;17.00;41.50
3504;DHT22;1766;53.490;10.174;2024-03-23T11:51:49;17.10;41.70
3504;DHT22;1766;53.490;10.174;2024-03-23T11:53:52;17.10;41.70
3504;DHT22;1766;53.490;10.174;2024-03-23T11:55:56;17.20;41.50
3504;DHT22;1766;53.490;10.174;2024-03-23T11:57:59;17.20;41.10
3504;DHT22;1766;53.490;10.174;2024-03-23T12:00:00;17.00;40.70
3504;DHT22;1766;53.490;10.174;2024-03-23T12:02:06;16.90;40.90
3504;DHT22;1766;53.490;10.174;2024-03-23T12:04:08;16.80;40.90
3504;DHT22;1766;53.490;10.174;2024-03-23T12:06:10;16.70;40.90
3504;DHT22;1766;53.490;10.174;2024-03-23T12:08:19;16.60;40.80
3504;DHT22;1766;53.490;10.174;2024-03-23T12:10:24;16.60;40.80
3504;DHT22;1766;53.490;10.174;2024-03-23T12:12:25;16.40;40.30
3504;DHT22;1766;53.490;10.174;2024-03-23T12:14:28;16.30;40.20
3504;DHT22;1766;53.490;10.174;2024-03-23T12:16:31;16.30;40.10
3504;DHT22;1766;53.490;10.174;2024-03-23T12:18:33;16.30;40.00
3504;DHT22;1766;53.490;10.174;2024-03-23T12:20:35;16.30;39.60
3504;DHT22;1766;53.490;10.174;2024-03-23T12:22:38;16.40;39.30
3504;DHT22;1766;53.490;10.174;2024-03-23T12:24:39;16.60;39.30
3504;DHT22;1766;53.490;10.174;2024-03-23T12:26:45;16.80;39.10
3504;DHT22;1766;53.490;10.174;2024-03-23T12:28:50;16.90;38.60
3504;DHT22;1766;53.490;10.174;2024-03-23T12:30:53;16.80;38.20
3504;DHT22;1766;53.490;10.174;2024-03-23T12:32:54;16.60;38.10
3504;DHT22;1766;53.490;10.174;2024-03-23T12:34:57;16.40;38.10
3504;DHT22;1766;53.490;10.174;2024-03-23T12:36:58;16.10;38.30
3504;DHT22;1766;53.490;10.174;2024-03-23T12:39:00;15.90;38.50
3504;DHT22;1766;53.490;10.174;2024-03-23T12:41:01;15.70;38.70
3504;DHT22;1766;53.490;10.174;2024-03-23T12:43:02;15.60;38.80
3504;DHT22;1766;53.490;10.174;2024-03-23T12:45:04;15.60;39.20
3504;DHT22;1766;53.490;10.174;2024-03-23T12:47:07;15.60;39.50
3504;DHT22;1766;53.490;10.174;2024-03-23T12:49:09;15.60;39.30
3504;DHT22;1766;53.490;10.174;2024-03-23T12:51:10;15.60;39.30
3504;DHT22;1766;53.490;10.174;2024-03-23T12:53:12;15.50;38.90
3504;DHT22;1766;53.490;10.174;2024-03-23T12:55:13;15.50;39.00
3504;DHT22;1766;53.490;10.174;2024-03-23T12:57:15;15.40;39.00
3504;DHT22;1766;53.490;10.174;2024-03-23T12:59:16;15.40;39.00
3504;DHT22;1766;53.490;10.174;2024-03-23T13:01:19;15.30;39.40
3504;DHT22;1766;53.490;10.174;2024-03-23T13:03:21;15.10;38.70
3504;DHT22;1766;53.490;10.174;2024-03-23T13:05:23;14.90;38.80
3504;DHT22;1766;53.490;10.174;2024-03-23T13:07:24;14.70;38.90
3504;DHT22;1766;53.490;10.174;2024-03-23T13:09:26;14.50;39.00
3504;DHT22;1766;53.490;10.174;2024-03-23T13:11:27;14.40;39.30
3504;DHT22;1766;53.490;10.174;2024-03-23T13:13:29;14.40;39.60
3504;DHT22;1766;53.490;10.174;2024-03-23T13:15:32;14.30;39.70
3504;DHT22;1766;53.490;10.174;2024-03-23T13:17:34;14.20;39.70
3504;DHT22;1766;53.490;10.174;2024-03-23T13:19:36;14.20;39.90
3504;DHT22;1766;53.490;10.174;2024-03-23T13:21:39;14.20;40.00
3504;DHT22;1766;53.490;10.174;2024-03-23T13:23:40;14.00;39.70
3504;DHT22;1766;53.490;10.174;2024-03-23T13:25:49;13.90;39.90
3504;DHT22;1766;53.490;10.174;2024-03-23T13:27:53;13.80;40.00
3504;DHT22;1766;53.490;10.174;2024-03-23T13:29:55;13.70;40.10
3504;DHT22;1766;53.490;10.174;2024-03-23T13:31:56;13.70;40.30
3504;DHT22;1766;53.490;10.174;2024-03-23T13:33:58;13.70;40.50
3504;DHT22;1766;53.490;10.174;2024-03-23T13:36:00;13.60;40.50
3504;DHT22;1766;53.490;10.174;2024-03-23T13:38:02;13.60;40.70
3504;DHT22;1766;53.490;10.174;2024-03-23T13:40:06;13.60;40.90
3504;DHT22;1766;53.490;10.174;2024-03-23T13:42:09;13.60;41.00
3504;DHT22;1766;53.490;10.174;2024-03-23T13:44:11;13.60;41.20
3504;DHT22;1766;53.490;10.174;2024-03-23T13:46:14;13.60;41.30
3504;DHT22;1766;53.490;10.174;2024-03-23T13:48:16;13.70;41.40
3504;DHT22;1766;53.490;10.174;2024-03-23T13:50:19;13.70;41.50
3504;DHT22;1766;53.490;10.174;2024-03-23T13:52:21;13.70;41.40
3504;DHT22;1766;53.490;10.174;2024-03-23T13:54:26;13.70;41.50
3504;DHT22;1766;53.490;10.174;2024-03-23T13:56:28;13.80;41.70
3504;DHT22;1766;53.490;10.174;2024-03-23T13:58:30;13.80;41.80
3504;DHT22;1766;53.490;10.174;2024-03-23T14:00:31;13.90;41.90
3504;DHT22;1766;53.490;10.174;2024-03-23T14:02:34;14.00;41.90
3504;DHT22;1766;53.490;10.174;2024-03-23T14:04:34;14.00;41.80